createdAt,value
2022-10-26T00:00:50.319Z,9.15
2022-10-26T00:01:50.446Z,9.19
2022-10-26T00:02:50.817Z,9.15
2022-10-26T00:03:50.288Z,9.17
2022-10-26T00:04:50.306Z,9.17
2022-10-26T00:05:50.264Z,9.16
2022-10-26T00:06:50.264Z,9.19
2022-10-26T00:07:50.362Z,9.15
2022-10-26T00:08:50.239Z,9.12
2022-10-26T00:09:50.232Z,9.12
2022-10-26T00:10:50.222Z,9.23
2022-10-26T00:11:50.205Z,9.16
2022-10-26T00:12:50.564Z,9.26
2022-10-26T00:13:50.257Z,9.22
2022-10-26T00:14:50.165Z,9.26
2022-10-26T00:15:50.198Z,9.22
2022-10-26T00:16:50.214Z,9.30
2022-10-26T00:17:50.453Z,9.24
2022-10-26T00:18:50.144Z,9.24
2022-10-26T00:19:50.117Z,9.26
2022-10-26T00:20:50.118Z,9.20
2022-10-26T00:21:50.173Z,9.19
2022-10-26T00:22:50.077Z,9.15
2022-10-26T00:23:50.184Z,9.27
2022-10-26T00:24:50.058Z,9.20
2022-10-26T00:25:50.049Z,9.24
2022-10-26T00:26:50.034Z,9.16
2022-10-26T00:27:50.553Z,9.22
2022-10-26T00:28:50.016Z,9.20
2022-10-26T00:29:50.014Z,9.23
2022-10-26T00:30:49.991Z,9.24
2022-10-26T00:31:49.981Z,9.30
2022-10-26T00:32:49.968Z,9.13
2022-10-26T00:33:50.072Z,9.15
2022-10-26T00:34:49.958Z,9.26
2022-10-26T00:35:49.940Z,9.19
2022-10-26T00:36:49.943Z,9.30
2022-10-26T00:37:50.233Z,9.24
2022-10-26T00:38:49.902Z,9.30
2022-10-26T00:39:49.926Z,9.26
2022-10-26T00:40:50.015Z,9.23
2022-10-26T00:41:49.882Z,9.26
2022-10-26T00:42:50.263Z,9.32
2022-10-26T00:43:49.857Z,9.19
2022-10-26T00:44:49.838Z,9.26
2022-10-26T00:45:49.916Z,9.23
2022-10-26T00:46:49.826Z,9.23
2022-10-26T00:47:49.806Z,9.20
2022-10-26T00:48:49.794Z,9.15
2022-10-26T00:49:49.784Z,9.26
2022-10-26T00:50:49.771Z,9.22
2022-10-26T00:51:49.850Z,9.16
2022-10-26T00:52:50.082Z,9.22
2022-10-26T00:53:49.742Z,9.08
2022-10-26T00:54:49.727Z,9.24
2022-10-26T00:55:49.756Z,9.34
2022-10-26T00:56:49.705Z,9.32
2022-10-26T00:57:49.834Z,9.31
2022-10-26T00:58:49.684Z,9.37
2022-10-26T00:59:49.674Z,9.38
2022-10-26T01:00:49.663Z,9.41
2022-10-26T01:01:49.719Z,9.42
2022-10-26T01:02:50.036Z,9.41
2022-10-26T01:03:49.753Z,9.41
2022-10-26T01:04:49.616Z,9.44
2022-10-26T01:05:49.611Z,9.49
2022-10-26T01:06:49.613Z,9.42
2022-10-26T01:07:49.839Z,9.49
2022-10-26T01:08:49.608Z,9.41
2022-10-26T01:09:49.617Z,9.38
2022-10-26T01:10:49.550Z,9.35
2022-10-26T01:11:49.543Z,9.31
2022-10-26T01:12:49.544Z,9.26
2022-10-26T01:13:49.519Z,9.26
2022-10-26T01:14:49.506Z,9.23
2022-10-26T01:15:49.588Z,9.24
2022-10-26T01:16:49.487Z,9.34
2022-10-26T01:17:49.838Z,9.16
2022-10-26T01:18:49.477Z,9.22
2022-10-26T01:19:49.454Z,9.20
2022-10-26T01:20:49.440Z,9.24
2022-10-26T01:21:49.508Z,9.23
2022-10-26T01:22:49.418Z,9.24
2022-10-26T01:23:49.410Z,9.19
2022-10-26T01:24:49.433Z,9.23
2022-10-26T01:25:49.390Z,9.26
2022-10-26T01:26:49.516Z,9.24
2022-10-26T01:27:49.595Z,9.24
2022-10-26T01:28:49.356Z,9.19
2022-10-26T01:29:49.349Z,9.24
2022-10-26T01:30:49.441Z,9.22
2022-10-26T01:31:49.319Z,9.12
2022-10-26T01:32:49.311Z,9.32
2022-10-26T01:33:49.331Z,9.20
2022-10-26T01:34:49.291Z,9.16
2022-10-26T01:35:49.278Z,9.24
2022-10-26T01:36:49.284Z,9.17
2022-10-26T01:37:49.506Z,9.16
2022-10-26T01:38:49.328Z,9.27
2022-10-26T01:39:49.237Z,9.23
2022-10-26T01:40:49.254Z,9.20
2022-10-26T01:41:49.275Z,9.26
2022-10-26T01:42:49.205Z,9.30
2022-10-26T01:43:49.190Z,9.31
2022-10-26T01:44:49.242Z,9.26
2022-10-26T01:45:49.166Z,9.35
2022-10-26T01:46:49.168Z,9.26
2022-10-26T01:47:49.584Z,9.19
2022-10-26T01:48:49.136Z,9.27
2022-10-26T01:49:49.243Z,9.23
2022-10-26T01:50:49.115Z,9.24
2022-10-26T01:51:49.114Z,9.30
2022-10-26T01:52:49.093Z,9.19
2022-10-26T01:53:49.079Z,9.19
2022-10-26T01:54:49.071Z,9.20
2022-10-26T01:55:49.165Z,9.15
2022-10-26T01:56:49.074Z,9.12
2022-10-26T01:57:49.238Z,9.26
2022-10-26T01:58:49.031Z,9.08
2022-10-26T01:59:49.014Z,9.15
2022-10-26T02:00:49.017Z,9.19
2022-10-26T02:01:49.106Z,9.08
2022-10-26T02:02:48.982Z,9.10
2022-10-26T02:03:49.011Z,9.20
2022-10-26T02:04:48.959Z,9.01
2022-10-26T02:05:48.949Z,9.08
2022-10-26T02:06:48.949Z,9.22
2022-10-26T02:07:49.219Z,9.19
2022-10-26T02:08:48.917Z,9.04
2022-10-26T02:09:48.905Z,9.01
2022-10-26T02:10:48.893Z,9.22
2022-10-26T02:11:48.921Z,9.03
2022-10-26T02:12:48.896Z,9.23
2022-10-26T02:13:48.883Z,9.22
2022-10-26T02:14:48.854Z,9.16
2022-10-26T02:15:48.842Z,9.08
2022-10-26T02:16:48.827Z,9.26
2022-10-26T02:17:49.210Z,9.12
2022-10-26T02:18:48.807Z,9.12
2022-10-26T02:19:48.832Z,9.08
2022-10-26T02:20:48.786Z,9.08
2022-10-26T02:21:48.785Z,9.19
2022-10-26T02:22:48.763Z,9.19
2022-10-26T02:23:48.752Z,9.12
2022-10-26T02:24:48.741Z,9.10
2022-10-26T02:25:48.822Z,9.15
2022-10-26T02:26:48.719Z,9.19
2022-10-26T02:27:49.059Z,9.17
2022-10-26T02:28:48.743Z,9.06
2022-10-26T02:29:48.685Z,9.26
2022-10-26T02:30:48.676Z,9.22
2022-10-26T02:31:48.742Z,9.22
2022-10-26T02:32:48.677Z,9.24
2022-10-26T02:34:48.630Z,9.23
2022-10-26T02:35:48.618Z,9.20
2022-10-26T02:36:48.627Z,9.17
2022-10-26T02:37:48.870Z,9.20
2022-10-26T02:38:48.589Z,9.19
2022-10-26T02:39:48.575Z,9.19
2022-10-26T02:40:48.564Z,9.19
2022-10-26T02:41:48.553Z,9.08
2022-10-26T02:42:48.556Z,9.16
2022-10-26T02:43:48.604Z,9.19
2022-10-26T02:44:48.542Z,9.13
2022-10-26T02:45:48.507Z,9.16
2022-10-26T02:46:48.500Z,9.04
2022-10-26T02:47:48.968Z,9.10
2022-10-26T02:48:48.488Z,9.12
2022-10-26T02:49:48.482Z,9.23
2022-10-26T02:50:48.468Z,9.15
2022-10-26T02:52:48.695Z,8.97
2022-10-26T02:53:48.420Z,8.97
2022-10-26T02:54:48.410Z,9.10
2022-10-26T02:55:48.516Z,9.20
2022-10-26T02:56:48.390Z,9.20
2022-10-26T02:57:48.376Z,9.20
2022-10-26T02:58:48.380Z,9.13
2022-10-26T02:59:48.366Z,9.06
2022-10-26T03:00:48.365Z,9.12
2022-10-26T03:01:48.465Z,9.08
2022-10-26T03:02:48.759Z,9.08
2022-10-26T03:03:48.433Z,9.03
2022-10-26T03:04:48.303Z,9.04
2022-10-26T03:05:48.401Z,8.93
2022-10-26T03:06:48.282Z,8.82
2022-10-26T03:07:48.330Z,8.85
2022-10-26T03:08:48.259Z,8.83
2022-10-26T03:09:48.250Z,8.70
2022-10-26T03:10:48.237Z,8.78
2022-10-26T03:11:48.236Z,8.70
2022-10-26T03:12:48.603Z,8.65
2022-10-26T03:13:48.205Z,8.65
2022-10-26T03:14:48.201Z,8.64
2022-10-26T03:15:48.312Z,8.54
2022-10-26T03:16:48.256Z,8.58
2022-10-26T03:17:48.463Z,8.50
2022-10-26T03:18:48.227Z,8.40
2022-10-26T03:19:48.148Z,8.47
2022-10-26T03:20:48.127Z,8.58
2022-10-26T03:21:48.175Z,8.52
2022-10-26T03:22:48.104Z,8.54
2022-10-26T03:23:48.094Z,8.52
2022-10-26T03:24:48.083Z,8.71
2022-10-26T03:25:48.082Z,8.67
2022-10-26T03:26:48.155Z,8.60
2022-10-26T03:27:48.338Z,8.70
2022-10-26T03:28:48.037Z,8.75
2022-10-26T03:29:48.026Z,8.71
2022-10-26T03:30:48.016Z,8.78
2022-10-26T03:31:48.111Z,8.64
2022-10-26T03:32:48.070Z,8.70
2022-10-26T03:33:47.983Z,8.68
2022-10-26T03:34:47.976Z,8.64
2022-10-26T03:35:47.961Z,8.67
2022-10-26T03:36:47.951Z,8.58
2022-10-26T03:37:48.100Z,8.61
2022-10-26T03:38:48.025Z,8.57
2022-10-26T03:39:47.990Z,8.57
2022-10-26T03:40:47.907Z,8.50
2022-10-26T03:41:47.920Z,8.52
2022-10-26T03:42:48.210Z,8.57
2022-10-26T03:43:47.872Z,8.58
2022-10-26T03:44:47.902Z,8.42
2022-10-26T03:45:47.852Z,8.54
2022-10-26T03:46:47.840Z,8.46
2022-10-26T03:47:47.831Z,8.52
2022-10-26T03:48:47.848Z,8.40
2022-10-26T03:49:47.810Z,8.52
2022-10-26T03:50:47.867Z,8.50
2022-10-26T03:51:47.789Z,8.50
2022-10-26T03:52:48.196Z,8.60
2022-10-26T03:53:47.778Z,8.55
2022-10-26T03:54:47.752Z,8.42
2022-10-26T03:55:47.743Z,8.31
2022-10-26T03:56:51.239Z,8.28
2022-10-26T03:57:48.721Z,8.10
2022-10-26T03:58:47.710Z,8.17
2022-10-26T03:59:47.712Z,8.12
2022-10-26T04:00:47.687Z,8.09
2022-10-26T04:01:47.723Z,8.20
2022-10-26T04:02:48.008Z,8.31
2022-10-26T04:03:47.711Z,8.34
2022-10-26T04:04:47.663Z,8.45
2022-10-26T04:05:47.645Z,8.42
2022-10-26T04:06:47.626Z,8.54
2022-10-26T04:07:48.150Z,8.50
2022-10-26T04:08:47.659Z,8.54
2022-10-26T04:09:47.591Z,8.52
2022-10-26T04:10:47.580Z,8.46
2022-10-26T04:11:47.582Z,8.45
2022-10-26T04:12:47.576Z,8.93
2022-10-26T04:13:47.560Z,9.03
2022-10-26T04:14:47.533Z,8.97
2022-10-26T04:15:47.524Z,8.98
2022-10-26T04:16:47.512Z,8.91
2022-10-26T04:17:47.933Z,8.86
2022-10-26T04:18:47.489Z,8.80
2022-10-26T04:19:47.480Z,8.82
2022-10-26T04:20:47.488Z,8.78
2022-10-26T04:21:47.459Z,8.82
2022-10-26T04:22:47.457Z,8.83
2022-10-26T04:23:47.437Z,8.79
2022-10-26T04:24:47.424Z,8.75
2022-10-26T04:25:47.415Z,8.82
2022-10-26T04:26:47.413Z,8.76
2022-10-26T04:27:47.793Z,8.82
2022-10-26T04:28:47.380Z,8.83
2022-10-26T04:29:47.372Z,8.75
2022-10-26T04:30:47.370Z,8.71
2022-10-26T04:31:47.351Z,8.75
2022-10-26T04:32:47.783Z,8.76
2022-10-26T04:33:47.339Z,8.70
2022-10-26T04:34:47.319Z,8.79
2022-10-26T04:35:47.307Z,8.83
2022-10-26T04:36:47.313Z,8.80
2022-10-26T04:37:47.284Z,8.86
2022-10-26T04:38:47.285Z,8.88
2022-10-26T04:39:47.261Z,8.88
2022-10-26T04:40:47.250Z,9.00
2022-10-26T04:41:47.255Z,9.00
2022-10-26T04:42:47.641Z,9.04
2022-10-26T04:43:47.233Z,8.96
2022-10-26T04:44:47.206Z,9.03
2022-10-26T04:45:47.207Z,8.88
2022-10-26T04:46:47.196Z,9.00
2022-10-26T04:47:47.176Z,8.96
2022-10-26T04:48:47.231Z,9.03
2022-10-26T04:49:47.163Z,9.06
2022-10-26T04:50:47.140Z,9.06
2022-10-26T04:51:47.128Z,9.01
2022-10-26T04:52:47.491Z,9.06
2022-10-26T04:53:47.108Z,9.08
2022-10-26T04:54:47.096Z,9.22
2022-10-26T04:55:47.103Z,9.08
2022-10-26T04:57:47.444Z,9.19
2022-10-26T04:58:47.054Z,9.00
2022-10-26T04:59:47.042Z,8.96
2022-10-26T05:00:47.034Z,8.88
2022-10-26T05:01:47.162Z,8.89
2022-10-26T05:02:47.011Z,8.71
2022-10-26T05:03:47.009Z,8.65
2022-10-26T05:04:46.986Z,8.64
2022-10-26T05:05:46.979Z,8.71
2022-10-26T05:06:46.966Z,8.71
2022-10-26T05:07:47.276Z,8.76
2022-10-26T05:08:46.975Z,8.70
2022-10-26T05:09:46.934Z,8.64
2022-10-26T05:10:46.920Z,8.67
2022-10-26T05:11:46.922Z,8.65
2022-10-26T05:12:46.898Z,8.70
2022-10-26T05:13:46.916Z,8.64
2022-10-26T05:14:46.875Z,8.64
2022-10-26T05:15:46.868Z,8.71
2022-10-26T05:16:46.856Z,8.63
2022-10-26T05:17:47.184Z,8.67
2022-10-26T05:18:46.835Z,8.61
2022-10-26T05:19:46.939Z,8.76
2022-10-26T05:20:46.811Z,8.70
2022-10-26T05:21:46.804Z,8.65
2022-10-26T05:22:47.076Z,8.79
2022-10-26T05:23:46.783Z,8.85
2022-10-26T05:24:46.787Z,8.89
2022-10-26T05:25:46.819Z,8.94
2022-10-26T05:26:46.745Z,8.89
2022-10-26T05:27:46.749Z,9.00
2022-10-26T05:28:46.724Z,8.83
2022-10-26T05:29:46.714Z,9.06
2022-10-26T05:30:46.704Z,8.86
2022-10-26T05:31:46.764Z,8.76
2022-10-26T05:32:46.840Z,8.70
2022-10-26T05:33:46.670Z,8.85
2022-10-26T05:34:46.661Z,8.86
2022-10-26T05:35:46.650Z,8.93
2022-10-26T05:36:46.635Z,8.82
2022-10-26T05:37:46.723Z,8.82
2022-10-26T05:38:46.629Z,8.71
2022-10-26T05:39:46.609Z,8.78
2022-10-26T05:40:46.614Z,8.73
2022-10-26T05:41:46.633Z,8.63
2022-10-26T05:42:46.858Z,8.61
2022-10-26T05:43:46.638Z,8.57
2022-10-26T05:44:46.553Z,8.61
2022-10-26T05:45:46.539Z,8.70
2022-10-26T05:46:46.646Z,8.82
2022-10-26T05:47:46.853Z,8.93
2022-10-26T05:48:46.505Z,8.98
2022-10-26T05:49:46.555Z,9.13
2022-10-26T05:50:46.485Z,9.31
2022-10-26T05:51:46.476Z,9.24
2022-10-26T05:52:46.463Z,9.30
2022-10-26T05:53:46.465Z,9.17
2022-10-26T05:54:46.441Z,9.20
2022-10-26T05:55:46.539Z,9.15
2022-10-26T05:56:46.439Z,9.12
2022-10-26T05:57:46.517Z,8.96
2022-10-26T05:58:46.400Z,8.96
2022-10-26T05:59:46.392Z,8.98
2022-10-26T06:00:46.377Z,8.98
2022-10-26T06:01:46.537Z,8.86
2022-10-26T06:02:46.515Z,8.73
2022-10-26T06:03:46.346Z,8.76
2022-10-26T06:04:46.333Z,8.63
2022-10-26T06:05:46.325Z,8.54
2022-10-26T06:06:46.379Z,8.52
2022-10-26T06:07:46.498Z,8.49
2022-10-26T06:08:46.300Z,8.58
2022-10-26T06:09:46.285Z,8.45
2022-10-26T06:10:46.268Z,8.46
2022-10-26T06:11:46.288Z,8.43
2022-10-26T06:12:46.459Z,8.42
2022-10-26T06:13:46.327Z,8.43
2022-10-26T06:14:46.228Z,8.36
2022-10-26T06:15:46.226Z,8.50
2022-10-26T06:16:46.203Z,8.49
2022-10-26T06:17:46.193Z,8.29
2022-10-26T06:18:46.263Z,8.25
2022-10-26T06:19:46.178Z,8.24
2022-10-26T06:20:46.167Z,8.14
2022-10-26T06:21:46.200Z,8.14
2022-10-26T06:22:46.279Z,8.07
2022-10-26T06:23:46.131Z,8.14
2022-10-26T06:24:46.126Z,8.07
2022-10-26T06:25:46.108Z,8.03
2022-10-26T06:26:46.094Z,8.04
2022-10-26T06:27:46.086Z,7.91
2022-10-26T06:28:48.652Z,8.00
2022-10-26T06:29:46.081Z,7.99
2022-10-26T06:30:46.136Z,7.95
2022-10-26T06:31:46.042Z,7.95
2022-10-26T06:32:46.158Z,8.02
2022-10-26T06:33:46.019Z,8.07
2022-10-26T06:34:46.103Z,8.00
2022-10-26T06:35:46.009Z,8.03
2022-10-26T06:36:46.100Z,8.14
2022-10-26T06:37:46.313Z,8.07
2022-10-26T06:38:46.064Z,8.04
2022-10-26T06:39:47.879Z,8.07
2022-10-26T06:40:46.030Z,8.06
2022-10-26T06:41:45.942Z,7.99
2022-10-26T06:42:46.024Z,8.00
2022-10-26T06:43:45.912Z,8.02
2022-10-26T06:44:45.934Z,7.96
2022-10-26T06:45:45.886Z,8.14
2022-10-26T06:46:45.962Z,8.12
2022-10-26T06:47:46.089Z,8.03
2022-10-26T06:48:45.893Z,7.95
2022-10-26T06:49:45.847Z,8.02
2022-10-26T06:50:45.901Z,7.99
2022-10-26T06:51:45.824Z,8.06
2022-10-26T06:52:45.822Z,8.03
2022-10-26T06:53:45.802Z,8.18
2022-10-26T06:54:45.789Z,8.09
2022-10-26T06:55:45.780Z,8.09
2022-10-26T06:56:45.764Z,8.17
2022-10-26T06:57:45.756Z,8.09
2022-10-26T06:58:45.757Z,8.20
2022-10-26T06:59:45.741Z,8.20
2022-10-26T07:00:45.755Z,8.31
2022-10-26T07:01:45.845Z,8.21
2022-10-26T07:02:45.745Z,8.25
2022-10-26T07:03:45.766Z,8.27
2022-10-26T07:04:45.690Z,8.37
2022-10-26T07:05:45.669Z,8.43
2022-10-26T07:06:45.656Z,8.36
2022-10-26T07:07:45.646Z,8.34
2022-10-26T07:08:45.647Z,8.36
2022-10-26T07:09:45.624Z,8.42
2022-10-26T07:10:45.622Z,8.34
2022-10-26T07:11:45.603Z,8.50
2022-10-26T07:12:45.588Z,8.54
2022-10-26T07:13:45.581Z,8.52
2022-10-26T07:14:45.568Z,8.63
2022-10-26T07:15:45.576Z,8.61
2022-10-26T07:16:45.578Z,8.43
2022-10-26T07:17:45.541Z,8.47
2022-10-26T07:18:45.538Z,8.55
2022-10-26T07:19:45.524Z,8.57
2022-10-26T07:20:45.502Z,8.52
2022-10-26T07:21:45.494Z,8.47
2022-10-26T07:22:45.494Z,8.54
2022-10-26T07:23:45.473Z,8.50
2022-10-26T07:24:45.459Z,8.63
2022-10-26T07:25:45.454Z,8.63
2022-10-26T07:26:45.539Z,8.61
2022-10-26T07:27:45.428Z,8.67
2022-10-26T07:28:45.517Z,8.75
2022-10-26T07:29:45.422Z,8.78
2022-10-26T07:30:45.490Z,8.71
2022-10-26T07:31:45.469Z,8.75
2022-10-26T07:32:45.449Z,8.65
2022-10-26T07:33:45.362Z,8.80
2022-10-26T07:34:45.451Z,8.80
2022-10-26T07:35:45.355Z,8.88
2022-10-26T07:36:45.365Z,9.00
2022-10-26T07:37:45.341Z,9.04
2022-10-26T07:38:45.308Z,9.12
2022-10-26T07:39:45.302Z,9.17
2022-10-26T07:40:45.288Z,9.17
2022-10-26T07:41:45.277Z,8.98
2022-10-26T07:42:47.674Z,9.04
2022-10-26T07:43:45.278Z,9.03
2022-10-26T07:44:45.243Z,9.26
2022-10-26T07:45:45.267Z,9.40
2022-10-26T07:46:45.272Z,9.35
2022-10-26T07:47:45.224Z,9.40
2022-10-26T07:49:45.204Z,9.55
2022-10-26T07:50:45.199Z,9.56
2022-10-26T07:51:45.250Z,9.63
2022-10-26T07:52:45.167Z,9.60
2022-10-26T07:53:45.150Z,9.63
2022-10-26T07:54:45.145Z,9.58
2022-10-26T07:55:45.146Z,9.53
2022-10-26T07:56:45.142Z,9.56
2022-10-26T07:57:46.086Z,9.68
2022-10-26T07:58:45.102Z,9.52
2022-10-26T07:59:45.085Z,9.56
2022-10-26T08:00:45.224Z,9.53
2022-10-26T08:01:45.083Z,9.63
2022-10-26T08:02:45.156Z,9.67
2022-10-26T08:03:45.116Z,9.55
2022-10-26T08:04:45.058Z,9.52
2022-10-26T08:05:45.021Z,9.56
2022-10-26T08:06:45.015Z,9.60
2022-10-26T08:07:45.000Z,9.40
2022-10-26T08:08:47.395Z,9.42
2022-10-26T08:09:44.977Z,9.40
2022-10-26T08:10:44.971Z,9.44
2022-10-26T08:11:44.957Z,9.55
2022-10-26T08:12:44.959Z,9.49
2022-10-26T08:13:45.003Z,9.56
2022-10-26T08:14:45.011Z,9.52
2022-10-26T08:15:44.921Z,9.55
2022-10-26T08:16:44.907Z,9.55
2022-10-26T08:17:44.894Z,9.62
2022-10-26T08:18:44.897Z,9.74
2022-10-26T08:19:44.873Z,9.65
2022-10-26T08:20:44.925Z,9.67
2022-10-26T08:21:44.855Z,9.70
2022-10-26T08:22:44.862Z,9.89
2022-10-26T08:23:44.837Z,10.04
2022-10-26T08:24:44.824Z,10.10
2022-10-26T08:25:44.810Z,10.25
2022-10-26T08:26:44.867Z,10.57
2022-10-26T08:27:44.788Z,11.11
2022-10-26T08:28:44.792Z,11.38
2022-10-26T08:29:44.766Z,11.72
2022-10-26T08:30:44.768Z,11.98
2022-10-26T08:31:44.744Z,11.98
2022-10-26T08:32:44.805Z,12.08
2022-10-26T08:33:45.135Z,12.23
2022-10-26T08:34:44.718Z,12.36
2022-10-26T08:35:44.702Z,11.75
2022-10-26T08:36:44.722Z,11.31
2022-10-26T08:37:44.702Z,10.91
2022-10-26T08:38:44.757Z,10.62
2022-10-26T08:39:44.683Z,10.65
2022-10-26T08:40:44.648Z,10.57
2022-10-26T08:41:44.649Z,10.68
2022-10-26T08:42:44.642Z,10.62
2022-10-26T08:43:44.612Z,10.87
2022-10-26T08:44:44.676Z,10.91
2022-10-26T08:45:44.588Z,10.94
2022-10-26T08:46:44.580Z,11.06
2022-10-26T08:47:44.567Z,11.03
2022-10-26T08:48:44.570Z,11.02
2022-10-26T08:49:44.544Z,11.41
2022-10-26T08:50:44.601Z,11.54
2022-10-26T08:51:44.523Z,11.53
2022-10-26T08:52:44.533Z,11.45
2022-10-26T08:53:44.609Z,11.35
2022-10-26T08:54:44.491Z,11.13
2022-10-26T08:55:44.479Z,11.17
2022-10-26T08:56:47.177Z,11.30
2022-10-26T08:57:45.455Z,11.66
2022-10-26T08:58:44.447Z,11.63
2022-10-26T08:59:44.452Z,11.51
2022-10-26T09:00:44.512Z,11.46
2022-10-26T09:01:44.598Z,11.63
2022-10-26T09:02:44.577Z,11.72
2022-10-26T09:03:44.386Z,11.88
2022-10-26T09:04:44.391Z,12.03
2022-10-26T09:05:44.380Z,12.11
2022-10-26T09:06:44.355Z,12.77
2022-10-26T09:07:44.343Z,12.79
2022-10-26T09:08:44.385Z,12.30
2022-10-26T09:09:44.321Z,12.04
2022-10-26T09:10:44.322Z,11.66
2022-10-26T09:11:44.316Z,11.45
2022-10-26T09:12:44.292Z,11.38
2022-10-26T09:13:44.278Z,11.24
2022-10-26T09:14:44.290Z,11.20
2022-10-26T09:15:44.258Z,11.05
2022-10-26T09:16:44.246Z,11.11
2022-10-26T09:17:44.242Z,11.02
2022-10-26T09:18:44.311Z,10.88
2022-10-26T09:19:44.213Z,10.94
2022-10-26T09:20:44.246Z,10.99
2022-10-26T09:21:44.188Z,10.95
2022-10-26T09:22:44.177Z,11.05
2022-10-26T09:23:44.177Z,10.78
2022-10-26T09:24:44.178Z,10.84
2022-10-26T09:25:44.143Z,10.70
2022-10-26T09:26:44.230Z,10.83
2022-10-26T09:27:44.127Z,10.84
2022-10-26T09:28:44.122Z,10.75
2022-10-26T09:29:44.112Z,10.65
2022-10-26T09:30:44.158Z,10.76
2022-10-26T09:31:44.088Z,10.66
2022-10-26T09:32:44.176Z,10.75
2022-10-26T09:33:44.158Z,10.76
2022-10-26T09:34:44.048Z,10.87
2022-10-26T09:35:44.033Z,10.68
2022-10-26T09:36:44.025Z,10.75
2022-10-26T09:37:44.012Z,10.73
2022-10-26T09:38:44.070Z,10.76
2022-10-26T09:39:43.989Z,10.73
2022-10-26T09:40:44.001Z,10.86
2022-10-26T09:41:43.974Z,10.76
2022-10-26T09:42:43.958Z,10.72
2022-10-26T09:43:44.026Z,10.70
2022-10-26T09:44:44.021Z,10.69
2022-10-26T09:45:43.923Z,10.70
2022-10-26T09:46:43.968Z,10.69
2022-10-26T09:47:43.902Z,10.75
2022-10-26T09:48:43.891Z,10.73
2022-10-26T09:49:43.878Z,10.69
2022-10-26T09:50:43.952Z,10.86
2022-10-26T09:51:43.855Z,10.88
2022-10-26T09:52:43.862Z,10.86
2022-10-26T09:53:43.843Z,10.99
2022-10-26T09:54:43.825Z,10.73
2022-10-26T09:55:43.811Z,10.91
2022-10-26T09:56:43.864Z,10.91
2022-10-26T09:57:43.790Z,10.84
2022-10-26T09:58:43.791Z,10.94
2022-10-26T09:59:43.765Z,10.91
2022-10-26T10:00:43.757Z,10.80
2022-10-26T10:01:43.768Z,11.01
2022-10-26T10:02:43.970Z,10.88
2022-10-26T10:03:43.721Z,11.16
2022-10-26T10:04:43.722Z,11.01
2022-10-26T10:05:52.491Z,10.91
2022-10-26T10:06:44.700Z,10.99
2022-10-26T10:07:43.679Z,10.81
2022-10-26T10:08:43.918Z,10.94
2022-10-26T10:09:43.654Z,10.84
2022-10-26T10:10:43.647Z,10.69
2022-10-26T10:11:43.631Z,10.62
2022-10-26T10:12:43.655Z,10.69
2022-10-26T10:13:43.610Z,10.55
2022-10-26T10:14:43.666Z,10.60
2022-10-26T10:15:43.587Z,10.58
2022-10-26T10:16:43.588Z,10.73
2022-10-26T10:17:43.569Z,10.72
2022-10-26T10:18:43.554Z,10.62
2022-10-26T10:19:43.554Z,10.62
2022-10-26T10:20:43.644Z,10.63
2022-10-26T10:21:43.521Z,10.76
2022-10-26T10:22:43.512Z,10.93
2022-10-26T10:23:43.498Z,10.83
2022-10-26T10:24:43.491Z,10.81
2022-10-26T10:25:43.488Z,10.87
2022-10-26T10:26:43.540Z,10.91
2022-10-26T10:27:43.454Z,10.88
2022-10-26T10:28:43.473Z,10.90
2022-10-26T10:29:43.433Z,10.95
2022-10-26T10:30:43.452Z,11.02
2022-10-26T10:31:43.412Z,11.05
2022-10-26T10:32:43.470Z,10.84
2022-10-26T10:33:43.390Z,10.90
2022-10-26T10:34:43.384Z,10.76
2022-10-26T10:35:43.370Z,10.51
2022-10-26T10:36:43.373Z,10.60
2022-10-26T10:37:43.347Z,10.65
2022-10-26T10:38:43.380Z,10.73
2022-10-26T10:39:43.326Z,10.75
2022-10-26T10:40:43.318Z,10.83
2022-10-26T10:41:43.317Z,10.95
2022-10-26T10:42:43.297Z,10.93
2022-10-26T10:43:43.283Z,10.93
2022-10-26T10:44:43.315Z,10.83
2022-10-26T10:45:43.259Z,10.86
2022-10-26T10:46:43.253Z,10.80
2022-10-26T10:47:43.260Z,10.86
2022-10-26T10:48:43.230Z,10.84
2022-10-26T10:49:43.237Z,10.84
2022-10-26T10:50:43.232Z,10.86
2022-10-26T10:51:43.200Z,10.69
2022-10-26T10:52:43.187Z,10.63
2022-10-26T10:53:43.187Z,10.55
2022-10-26T10:54:43.166Z,10.43
2022-10-26T10:55:43.168Z,10.52
2022-10-26T10:56:43.209Z,10.49
2022-10-26T10:57:43.147Z,10.55
2022-10-26T10:58:43.122Z,10.81
2022-10-26T10:59:43.160Z,10.99
2022-10-26T11:00:43.130Z,11.21
2022-10-26T11:01:43.170Z,11.19
2022-10-26T11:02:43.250Z,11.67
2022-10-26T11:03:43.126Z,11.67
2022-10-26T11:04:43.070Z,11.70
2022-10-26T11:05:43.051Z,11.70
2022-10-26T11:06:43.103Z,11.59
2022-10-26T11:07:43.076Z,11.46
2022-10-26T11:08:43.056Z,11.67
2022-10-26T11:09:43.122Z,11.77
2022-10-26T11:10:43.044Z,11.87
2022-10-26T11:11:45.468Z,11.94
2022-10-26T11:12:43.028Z,11.87
2022-10-26T11:13:42.999Z,11.82
2022-10-26T11:14:45.178Z,12.55
2022-10-26T11:15:42.979Z,12.99
2022-10-26T11:16:42.988Z,12.99
2022-10-26T11:17:43.038Z,13.31
2022-10-26T11:18:42.930Z,13.83
2022-10-26T11:19:42.947Z,14.02
2022-10-26T11:20:42.956Z,14.04
2022-10-26T11:21:42.928Z,13.80
2022-10-26T11:22:42.914Z,13.48
2022-10-26T11:23:42.941Z,13.22
2022-10-26T11:24:42.895Z,13.13
2022-10-26T11:25:42.863Z,13.24
2022-10-26T11:26:45.267Z,13.04
2022-10-26T11:27:42.819Z,13.10
2022-10-26T11:28:42.798Z,13.32
2022-10-26T11:29:45.929Z,13.32
2022-10-26T11:30:42.785Z,13.09
2022-10-26T11:31:42.763Z,13.66
2022-10-26T11:32:42.793Z,13.38
2022-10-26T11:33:42.741Z,13.03
2022-10-26T11:34:42.734Z,13.06
2022-10-26T11:35:42.763Z,13.35
2022-10-26T11:36:42.736Z,13.66
2022-10-26T11:37:42.714Z,13.76
2022-10-26T11:38:55.949Z,14.04
2022-10-26T11:39:43.675Z,13.93
2022-10-26T11:40:42.680Z,14.08
2022-10-26T11:41:42.701Z,13.73
2022-10-26T11:42:42.645Z,13.55
2022-10-26T11:43:42.633Z,13.47
2022-10-26T11:44:42.636Z,13.13
2022-10-26T11:45:42.622Z,13.12
2022-10-26T11:46:42.600Z,12.98
2022-10-26T11:47:42.673Z,12.95
2022-10-26T11:48:42.603Z,13.10
2022-10-26T11:49:42.586Z,13.79
2022-10-26T11:50:42.560Z,14.12
2022-10-26T11:51:42.544Z,14.29
2022-10-26T11:52:42.537Z,14.12
2022-10-26T11:53:42.577Z,14.29
2022-10-26T11:54:42.512Z,13.84
2022-10-26T11:55:42.522Z,13.73
2022-10-26T11:56:42.494Z,13.73
2022-10-26T11:57:42.478Z,13.83
2022-10-26T11:58:42.542Z,13.93
2022-10-26T11:59:42.533Z,13.68
2022-10-26T12:00:42.456Z,13.93
2022-10-26T12:01:42.464Z,13.29
2022-10-26T12:03:42.413Z,13.19
2022-10-26T12:04:42.434Z,13.43
2022-10-26T12:05:42.476Z,13.94
2022-10-26T12:06:42.383Z,14.20
2022-10-26T12:07:42.373Z,14.38
2022-10-26T12:08:42.359Z,14.64
2022-10-26T12:09:42.399Z,14.66
2022-10-26T12:10:42.350Z,14.30
2022-10-26T12:11:42.361Z,14.30
2022-10-26T12:12:42.316Z,14.45
2022-10-26T12:13:42.303Z,14.48
2022-10-26T12:14:42.294Z,14.86
2022-10-26T12:16:43.273Z,15.07
2022-10-26T12:17:42.288Z,15.52
2022-10-26T12:18:55.167Z,15.52
2022-10-26T12:19:43.238Z,15.49
2022-10-26T12:20:42.280Z,15.00
2022-10-26T12:21:42.227Z,15.18
2022-10-26T12:22:42.204Z,15.38
2022-10-26T12:23:51.522Z,15.56
2022-10-26T12:24:43.182Z,15.67
2022-10-26T12:25:42.175Z,15.40
2022-10-26T12:26:42.172Z,14.94
2022-10-26T12:27:42.240Z,14.91
2022-10-26T12:28:42.140Z,15.16
2022-10-26T12:29:42.171Z,14.94
2022-10-26T12:30:42.123Z,15.20
2022-10-26T12:31:42.121Z,15.62
2022-10-26T12:32:43.792Z,15.62
2022-10-26T12:33:42.089Z,15.60
2022-10-26T12:34:42.076Z,15.70
2022-10-26T12:35:42.118Z,15.78
2022-10-26T12:36:42.085Z,15.71
2022-10-26T12:37:42.046Z,15.92
2022-10-26T12:38:42.031Z,16.10
2022-10-26T12:39:42.022Z,16.47
2022-10-26T12:40:42.013Z,16.47
2022-10-26T12:41:42.068Z,16.25
2022-10-26T12:42:42.000Z,16.48
2022-10-26T12:43:42.088Z,16.66
2022-10-26T12:44:41.970Z,16.80
2022-10-26T12:45:41.958Z,16.51
2022-10-26T12:46:42.018Z,16.55
2022-10-26T12:47:41.981Z,16.67
2022-10-26T12:48:41.925Z,16.48
2022-10-26T12:49:41.916Z,16.23
2022-10-26T12:50:41.904Z,15.77
2022-10-26T12:51:41.911Z,15.93
2022-10-26T12:52:41.914Z,15.85
2022-10-26T12:53:45.791Z,15.88
2022-10-26T12:54:41.864Z,15.88
2022-10-26T12:55:41.850Z,15.81
2022-10-26T12:56:41.839Z,15.89
2022-10-26T12:57:41.840Z,15.76
2022-10-26T12:58:41.817Z,16.10
2022-10-26T12:59:41.893Z,16.10
2022-10-26T13:00:41.806Z,15.98
2022-10-26T13:01:41.902Z,15.93
2022-10-26T13:02:41.773Z,15.96
2022-10-26T13:03:41.776Z,15.67
2022-10-26T13:04:41.756Z,15.66
2022-10-26T13:05:41.786Z,15.95
2022-10-26T13:06:41.730Z,15.71
2022-10-26T13:07:41.721Z,15.89
2022-10-26T13:08:41.751Z,16.06
2022-10-26T13:09:41.699Z,16.10
2022-10-26T13:10:41.689Z,15.98
2022-10-26T13:11:41.716Z,15.85
2022-10-26T13:12:41.664Z,15.66
2022-10-26T13:13:41.655Z,15.86
2022-10-26T13:14:41.664Z,15.88